sensor_id;sensor_type;location;lat;lon;timestamp;temperature;humidity
75380;HTU21D;65641;44.714;37.756;2022-12-10T00:00:06;14.26;85.51
75380;HTU21D;65641;44.714;37.756;2022-12-10T00:01:15;14.25;85.54
75380;HTU21D;65641;44.714;37.756;2022-12-10T00:02:18;14.25;85.55
75380;HTU21D;65641;44.714;37.756;2022-12-10T00:03:21;14.25;85.51
75380;HTU21D;65641;44.714;37.756;2022-12-10T00:04:24;14.25;85.58
75380;HTU21D;65641;44.714;37.756;2022-12-10T00:05:27;14.23;85.55
75380;HTU21D;65641;44.714;37.756;2022-12-10T00:06:36;14.25;85.60
75380;HTU21D;65641;44.714;37.756;2022-12-10T00:07:39;14.25;85.55
75380;HTU21D;65641;44.714;37.756;2022-12-10T00:08:42;14.25;85.57
75380;HTU21D;65641;44.714;37.756;2022-12-10T00:09:45;14.26;85.58
75380;HTU21D;65641;44.714;37.756;2022-12-10T00:10:48;14.25;85.61
75380;HTU21D;65641;44.714;37.756;2022-12-10T00:11:51;14.26;85.56
75380;HTU21D;65641;44.714;37.756;2022-12-10T00:12:55;14.25;85.54
75380;HTU21D;65641;44.714;37.756;2022-12-10T00:13:58;14.25;85.56
75380;HTU21D;65641;44.714;37.756;2022-12-10T00:15:01;14.24;85.63
75380;HTU21D;65641;44.714;37.756;2022-12-10T00:16:07;14.25;85.61
75380;HTU21D;65641;44.714;37.756;2022-12-10T00:17:10;14.24;85.62
75380;HTU21D;65641;44.714;37.756;2022-12-10T00:18:14;14.25;85.59
75380;HTU21D;65641;44.714;37.756;2022-12-10T00:19:17;14.24;85.67
75380;HTU21D;65641;44.714;37.756;2022-12-10T00:20:20;14.25;85.68
75380;HTU21D;65641;44.714;37.756;2022-12-10T00:21:28;14.25;85.63
75380;HTU21D;65641;44.714;37.756;2022-12-10T00:22:32;14.25;85.64
75380;HTU21D;65641;44.714;37.756;2022-12-10T00:23:35;14.24;85.58
75380;HTU21D;65641;44.714;37.756;2022-12-10T00:24:38;14.25;85.61
75380;HTU21D;65641;44.714;37.756;2022-12-10T00:25:41;14.25;85.62
75380;HTU21D;65641;44.714;37.756;2022-12-10T00:26:44;14.26;85.62
75380;HTU21D;65641;44.714;37.756;2022-12-10T00:27:48;14.27;85.60
75380;HTU21D;65641;44.714;37.756;2022-12-10T00:28:52;14.26;85.61
75380;HTU21D;65641;44.714;37.756;2022-12-10T00:29:55;14.25;85.61
75380;HTU21D;65641;44.714;37.756;2022-12-10T00:31:06;14.27;85.61
75380;HTU21D;65641;44.714;37.756;2022-12-10T00:32:09;14.26;85.61
75380;HTU21D;65641;44.714;37.756;2022-12-10T00:33:12;14.26;85.62
75380;HTU21D;65641;44.714;37.756;2022-12-10T00:34:15;14.26;85.62
75380;HTU21D;65641;44.714;37.756;2022-12-10T00:35:18;14.26;85.66
75380;HTU21D;65641;44.714;37.756;2022-12-10T00:36:27;14.25;85.58
75380;HTU21D;65641;44.714;37.756;2022-12-10T00:37:31;14.24;85.58
75380;HTU21D;65641;44.714;37.756;2022-12-10T00:38:35;14.25;85.69
75380;HTU21D;65641;44.714;37.756;2022-12-10T00:39:38;14.25;85.69
75380;HTU21D;65641;44.714;37.756;2022-12-10T00:40:41;14.27;85.68
75380;HTU21D;65641;44.714;37.756;2022-12-10T00:41:45;14.25;85.62
75380;HTU21D;65641;44.714;37.756;2022-12-10T00:42:48;14.26;85.66
75380;HTU21D;65641;44.714;37.756;2022-12-10T00:43:50;14.25;85.71
75380;HTU21D;65641;44.714;37.756;2022-12-10T00:44:53;14.26;85.58
75380;HTU21D;65641;44.714;37.756;2022-12-10T00:45:57;14.27;85.58
75380;HTU21D;65641;44.714;37.756;2022-12-10T00:47:00;14.26;85.58
75380;HTU21D;65641;44.714;37.756;2022-12-10T00:48:03;14.26;85.57
75380;HTU21D;65641;44.714;37.756;2022-12-10T00:49:06;14.27;85.59
75380;HTU21D;65641;44.714;37.756;2022-12-10T00:50:09;14.27;85.62
75380;HTU21D;65641;44.714;37.756;2022-12-10T00:51:21;14.26;85.55
75380;HTU21D;65641;44.714;37.756;2022-12-10T00:52:24;14.26;85.62
75380;HTU21D;65641;44.714;37.756;2022-12-10T00:53:28;14.26;85.59
75380;HTU21D;65641;44.714;37.756;2022-12-10T00:54:32;14.27;85.55
75380;HTU21D;65641;44.714;37.756;2022-12-10T00:55:35;14.27;85.61
75380;HTU21D;65641;44.714;37.756;2022-12-10T00:56:38;14.27;85.55
75380;HTU21D;65641;44.714;37.756;2022-12-10T00:57:41;14.26;85.61
75380;HTU21D;65641;44.714;37.756;2022-12-10T00:58:44;14.26;85.58
75380;HTU21D;65641;44.714;37.756;2022-12-10T00:59:47;14.26;85.61
75380;HTU21D;65641;44.714;37.756;2022-12-10T01:00:50;14.25;85.65
75380;HTU21D;65641;44.714;37.756;2022-12-10T01:01:52;14.26;85.69
75380;HTU21D;65641;44.714;37.756;2022-12-10T01:02:56;14.26;85.68
75380;HTU21D;65641;44.714;37.756;2022-12-10T01:04:01;14.25;85.66
75380;HTU21D;65641;44.714;37.756;2022-12-10T01:05:05;14.26;85.64
75380;HTU21D;65641;44.714;37.756;2022-12-10T01:06:35;14.26;85.69
75380;HTU21D;65641;44.714;37.756;2022-12-10T01:07:38;14.25;85.68
75380;HTU21D;65641;44.714;37.756;2022-12-10T01:08:42;14.25;85.70
75380;HTU21D;65641;44.714;37.756;2022-12-10T01:09:45;14.25;85.68
75380;HTU21D;65641;44.714;37.756;2022-12-10T01:10:52;14.25;85.72
75380;HTU21D;65641;44.714;37.756;2022-12-10T01:12:01;14.24;85.69
75380;HTU21D;65641;44.714;37.756;2022-12-10T01:13:04;14.25;85.68
75380;HTU21D;65641;44.714;37.756;2022-12-10T01:14:10;14.24;85.60
75380;HTU21D;65641;44.714;37.756;2022-12-10T01:15:13;14.24;85.70
75380;HTU21D;65641;44.714;37.756;2022-12-10T01:16:22;14.25;85.69
75380;HTU21D;65641;44.714;37.756;2022-12-10T01:17:25;14.24;85.71
75380;HTU21D;65641;44.714;37.756;2022-12-10T01:18:29;14.24;85.80
75380;HTU21D;65641;44.714;37.756;2022-12-10T01:19:33;14.23;85.69
75380;HTU21D;65641;44.714;37.756;2022-12-10T01:20:36;14.24;85.69
75380;HTU21D;65641;44.714;37.756;2022-12-10T01:21:40;14.24;85.67
75380;HTU21D;65641;44.714;37.756;2022-12-10T01:22:43;14.24;85.71
75380;HTU21D;65641;44.714;37.756;2022-12-10T01:23:48;14.23;85.71
75380;HTU21D;65641;44.714;37.756;2022-12-10T01:24:50;14.24;85.68
75380;HTU21D;65641;44.714;37.756;2022-12-10T01:25:53;14.24;85.74
75380;HTU21D;65641;44.714;37.756;2022-12-10T01:26:57;14.23;85.71
75380;HTU21D;65641;44.714;37.756;2022-12-10T01:28:01;14.24;85.74
75380;HTU21D;65641;44.714;37.756;2022-12-10T01:29:04;14.23;85.74
75380;HTU21D;65641;44.714;37.756;2022-12-10T01:30:08;14.23;85.73
75380;HTU21D;65641;44.714;37.756;2022-12-10T01:31:17;14.24;85.76
75380;HTU21D;65641;44.714;37.756;2022-12-10T01:32:21;14.22;85.76
75380;HTU21D;65641;44.714;37.756;2022-12-10T01:33:24;14.23;85.76
75380;HTU21D;65641;44.714;37.756;2022-12-10T01:34:28;14.22;85.77
75380;HTU21D;65641;44.714;37.756;2022-12-10T01:35:31;14.23;85.79
75380;HTU21D;65641;44.714;37.756;2022-12-10T01:36:37;14.22;85.76
75380;HTU21D;65641;44.714;37.756;2022-12-10T01:37:40;14.23;85.73
75380;HTU21D;65641;44.714;37.756;2022-12-10T01:38:43;14.22;85.75
75380;HTU21D;65641;44.714;37.756;2022-12-10T01:39:46;14.23;85.71
75380;HTU21D;65641;44.714;37.756;2022-12-10T01:40:49;14.22;85.76
75380;HTU21D;65641;44.714;37.756;2022-12-10T01:41:54;14.22;85.73
75380;HTU21D;65641;44.714;37.756;2022-12-10T01:42:58;14.23;85.74
75380;HTU21D;65641;44.714;37.756;2022-12-10T01:45:11;14.23;85.74
75380;HTU21D;65641;44.714;37.756;2022-12-10T01:46:14;14.23;85.74
75380;HTU21D;65641;44.714;37.756;2022-12-10T01:47:17;14.23;85.77
75380;HTU21D;65641;44.714;37.756;2022-12-10T01:48:20;14.23;85.77
75380;HTU21D;65641;44.714;37.756;2022-12-10T01:49:34;14.24;85.70
75380;HTU21D;65641;44.714;37.756;2022-12-10T01:50:38;14.24;85.74
75380;HTU21D;65641;44.714;37.756;2022-12-10T01:51:43;14.25;85.68
75380;HTU21D;65641;44.714;37.756;2022-12-10T01:52:48;14.23;85.72
75380;HTU21D;65641;44.714;37.756;2022-12-10T01:53:51;14.23;85.70
75380;HTU21D;65641;44.714;37.756;2022-12-10T01:54:54;14.22;85.83
75380;HTU21D;65641;44.714;37.756;2022-12-10T01:55:58;14.23;85.73
75380;HTU21D;65641;44.714;37.756;2022-12-10T01:57:19;14.23;85.74
75380;HTU21D;65641;44.714;37.756;2022-12-10T01:58:22;14.23;85.72
75380;HTU21D;65641;44.714;37.756;2022-12-10T01:59:26;14.24;85.77
75380;HTU21D;65641;44.714;37.756;2022-12-10T02:00:31;14.23;85.82
75380;HTU21D;65641;44.714;37.756;2022-12-10T02:01:49;14.23;85.76
75380;HTU21D;65641;44.714;37.756;2022-12-10T02:03:02;14.22;85.78
75380;HTU21D;65641;44.714;37.756;2022-12-10T02:04:46;14.23;85.73
75380;HTU21D;65641;44.714;37.756;2022-12-10T02:05:43;14.21;85.77
75380;HTU21D;65641;44.714;37.756;2022-12-10T02:06:59;14.22;85.79
75380;HTU21D;65641;44.714;37.756;2022-12-10T02:08:12;14.22;85.73
75380;HTU21D;65641;44.714;37.756;2022-12-10T02:10:42;14.22;85.75
75380;HTU21D;65641;44.714;37.756;2022-12-10T02:12:09;14.21;85.77
75380;HTU21D;65641;44.714;37.756;2022-12-10T02:13:28;14.23;85.71
75380;HTU21D;65641;44.714;37.756;2022-12-10T02:14:45;14.23;85.74
75380;HTU21D;65641;44.714;37.756;2022-12-10T02:17:41;14.23;85.74
75380;HTU21D;65641;44.714;37.756;2022-12-10T02:18:47;14.23;85.70
75380;HTU21D;65641;44.714;37.756;2022-12-10T02:20:06;14.24;85.75
75380;HTU21D;65641;44.714;37.756;2022-12-10T02:21:21;14.23;85.68
75380;HTU21D;65641;44.714;37.756;2022-12-10T02:22:33;14.23;85.70
75380;HTU21D;65641;44.714;37.756;2022-12-10T02:23:44;14.23;85.74
75380;HTU21D;65641;44.714;37.756;2022-12-10T02:24:51;14.23;85.75
75380;HTU21D;65641;44.714;37.756;2022-12-10T02:26:17;14.23;85.77
75380;HTU21D;65641;44.714;37.756;2022-12-10T02:27:35;14.24;85.74
75380;HTU21D;65641;44.714;37.756;2022-12-10T02:30:09;14.23;85.76
75380;HTU21D;65641;44.714;37.756;2022-12-10T02:31:15;14.24;85.72
75380;HTU21D;65641;44.714;37.756;2022-12-10T02:32:24;14.25;85.74
75380;HTU21D;65641;44.714;37.756;2022-12-10T02:33:32;14.25;85.71
75380;HTU21D;65641;44.714;37.756;2022-12-10T02:34:41;14.26;85.73
75380;HTU21D;65641;44.714;37.756;2022-12-10T02:35:47;14.26;85.71
75380;HTU21D;65641;44.714;37.756;2022-12-10T02:36:53;14.26;85.69
75380;HTU21D;65641;44.714;37.756;2022-12-10T02:38:24;14.27;85.64
75380;HTU21D;65641;44.714;37.756;2022-12-10T02:39:28;14.26;85.66
75380;HTU21D;65641;44.714;37.756;2022-12-10T02:40:34;14.27;85.66
75380;HTU21D;65641;44.714;37.756;2022-12-10T02:41:49;14.28;85.61
75380;HTU21D;65641;44.714;37.756;2022-12-10T02:42:54;14.26;85.67
75380;HTU21D;65641;44.714;37.756;2022-12-10T02:44:02;14.28;85.67
75380;HTU21D;65641;44.714;37.756;2022-12-10T02:45:06;14.28;85.63
75380;HTU21D;65641;44.714;37.756;2022-12-10T02:46:10;14.27;85.65
75380;HTU21D;65641;44.714;37.756;2022-12-10T02:47:15;14.28;85.69
75380;HTU21D;65641;44.714;37.756;2022-12-10T02:48:20;14.29;85.71
75380;HTU21D;65641;44.714;37.756;2022-12-10T02:49:24;14.27;85.68
75380;HTU21D;65641;44.714;37.756;2022-12-10T02:50:28;14.28;85.74
75380;HTU21D;65641;44.714;37.756;2022-12-10T02:51:31;14.28;85.62
75380;HTU21D;65641;44.714;37.756;2022-12-10T02:52:35;14.28;85.71
75380;HTU21D;65641;44.714;37.756;2022-12-10T02:53:45;14.29;85.66
75380;HTU21D;65641;44.714;37.756;2022-12-10T02:54:49;14.29;85.60
75380;HTU21D;65641;44.714;37.756;2022-12-10T03:00:13;14.29;85.67
75380;HTU21D;65641;44.714;37.756;2022-12-10T03:01:40;14.29;85.66
75380;HTU21D;65641;44.714;37.756;2022-12-10T03:04:26;14.32;85.64
75380;HTU21D;65641;44.714;37.756;2022-12-10T03:07:10;14.30;85.71
75380;HTU21D;65641;44.714;37.756;2022-12-10T03:08:23;14.30;85.66
75380;HTU21D;65641;44.714;37.756;2022-12-10T03:09:29;14.30;85.72
75380;HTU21D;65641;44.714;37.756;2022-12-10T03:12:08;14.30;85.70
75380;HTU21D;65641;44.714;37.756;2022-12-10T03:13:15;14.30;85.63
75380;HTU21D;65641;44.714;37.756;2022-12-10T03:14:23;14.32;85.75
75380;HTU21D;65641;44.714;37.756;2022-12-10T03:15:29;14.32;85.69
75380;HTU21D;65641;44.714;37.756;2022-12-10T03:16:41;14.32;85.71
75380;HTU21D;65641;44.714;37.756;2022-12-10T03:17:45;14.29;85.71
75380;HTU21D;65641;44.714;37.756;2022-12-10T03:18:52;14.32;85.76
75380;HTU21D;65641;44.714;37.756;2022-12-10T03:19:59;14.32;85.64
75380;HTU21D;65641;44.714;37.756;2022-12-10T03:21:05;14.33;85.73
75380;HTU21D;65641;44.714;37.756;2022-12-10T03:22:11;14.33;85.71
75380;HTU21D;65641;44.714;37.756;2022-12-10T03:23:16;14.34;85.67
75380;HTU21D;65641;44.714;37.756;2022-12-10T03:24:22;14.33;85.67
75380;HTU21D;65641;44.714;37.756;2022-12-10T03:25:27;14.34;85.70
75380;HTU21D;65641;44.714;37.756;2022-12-10T03:26:32;14.35;85.72
75380;HTU21D;65641;44.714;37.756;2022-12-10T03:27:37;14.36;85.67
75380;HTU21D;65641;44.714;37.756;2022-12-10T03:28:47;14.34;85.66
75380;HTU21D;65641;44.714;37.756;2022-12-10T03:29:54;14.36;85.64
75380;HTU21D;65641;44.714;37.756;2022-12-10T03:30:59;14.35;85.71
75380;HTU21D;65641;44.714;37.756;2022-12-10T03:32:03;14.35;85.66
75380;HTU21D;65641;44.714;37.756;2022-12-10T03:33:07;14.36;85.68
75380;HTU21D;65641;44.714;37.756;2022-12-10T03:34:11;14.36;85.63
75380;HTU21D;65641;44.714;37.756;2022-12-10T03:35:18;14.36;85.67
75380;HTU21D;65641;44.714;37.756;2022-12-10T03:36:23;14.36;85.63
75380;HTU21D;65641;44.714;37.756;2022-12-10T03:37:28;14.36;85.65
75380;HTU21D;65641;44.714;37.756;2022-12-10T03:38:32;14.36;85.67
75380;HTU21D;65641;44.714;37.756;2022-12-10T03:39:35;14.38;85.71
75380;HTU21D;65641;44.714;37.756;2022-12-10T03:40:39;14.37;85.68
75380;HTU21D;65641;44.714;37.756;2022-12-10T03:41:43;14.37;85.67
75380;HTU21D;65641;44.714;37.756;2022-12-10T03:42:46;14.38;85.66
75380;HTU21D;65641;44.714;37.756;2022-12-10T03:43:57;14.37;85.65
75380;HTU21D;65641;44.714;37.756;2022-12-10T03:45:01;14.36;85.70
75380;HTU21D;65641;44.714;37.756;2022-12-10T03:46:05;14.37;85.71
75380;HTU21D;65641;44.714;37.756;2022-12-10T03:47:12;14.38;85.67
75380;HTU21D;65641;44.714;37.756;2022-12-10T03:48:16;14.37;85.73
75380;HTU21D;65641;44.714;37.756;2022-12-10T03:49:26;14.37;85.67
75380;HTU21D;65641;44.714;37.756;2022-12-10T03:50:31;14.36;85.68
75380;HTU21D;65641;44.714;37.756;2022-12-10T03:51:35;14.36;85.78
75380;HTU21D;65641;44.714;37.756;2022-12-10T03:52:38;14.36;85.73
75380;HTU21D;65641;44.714;37.756;2022-12-10T03:53:41;14.37;85.82
75380;HTU21D;65641;44.714;37.756;2022-12-10T03:54:44;14.37;85.75
75380;HTU21D;65641;44.714;37.756;2022-12-10T03:55:47;14.37;85.74
75380;HTU21D;65641;44.714;37.756;2022-12-10T03:56:50;14.36;85.76
75380;HTU21D;65641;44.714;37.756;2022-12-10T03:57:53;14.36;85.82
75380;HTU21D;65641;44.714;37.756;2022-12-10T03:58:55;14.37;85.74
75380;HTU21D;65641;44.714;37.756;2022-12-10T03:59:58;14.35;85.79
75380;HTU21D;65641;44.714;37.756;2022-12-10T04:01:03;14.36;85.80
75380;HTU21D;65641;44.714;37.756;2022-12-10T04:02:06;14.37;85.77
75380;HTU21D;65641;44.714;37.756;2022-12-10T04:03:09;14.37;85.77
75380;HTU21D;65641;44.714;37.756;2022-12-10T04:04:12;14.36;85.78
75380;HTU21D;65641;44.714;37.756;2022-12-10T04:05:15;14.36;85.77
75380;HTU21D;65641;44.714;37.756;2022-12-10T04:06:19;14.37;85.79
75380;HTU21D;65641;44.714;37.756;2022-12-10T04:07:22;14.36;85.84
75380;HTU21D;65641;44.714;37.756;2022-12-10T04:08:25;14.36;85.78
75380;HTU21D;65641;44.714;37.756;2022-12-10T04:09:28;14.36;85.80
75380;HTU21D;65641;44.714;37.756;2022-12-10T04:10:35;14.35;85.77
75380;HTU21D;65641;44.714;37.756;2022-12-10T04:11:38;14.37;85.80
75380;HTU21D;65641;44.714;37.756;2022-12-10T04:12:41;14.36;85.78
75380;HTU21D;65641;44.714;37.756;2022-12-10T04:13:45;14.36;85.81
75380;HTU21D;65641;44.714;37.756;2022-12-10T04:15:07;14.36;85.88
75380;HTU21D;65641;44.714;37.756;2022-12-10T04:16:42;14.37;85.78
75380;HTU21D;65641;44.714;37.756;2022-12-10T04:17:44;14.36;85.82
75380;HTU21D;65641;44.714;37.756;2022-12-10T04:18:47;14.37;85.84
75380;HTU21D;65641;44.714;37.756;2022-12-10T04:19:50;14.37;85.75
75380;HTU21D;65641;44.714;37.756;2022-12-10T04:20:54;14.37;85.86
75380;HTU21D;65641;44.714;37.756;2022-12-10T04:22:15;14.37;85.76
75380;HTU21D;65641;44.714;37.756;2022-12-10T04:23:36;14.37;85.79
75380;HTU21D;65641;44.714;37.756;2022-12-10T04:24:57;14.37;85.83
75380;HTU21D;65641;44.714;37.756;2022-12-10T04:26:19;14.37;85.76
75380;HTU21D;65641;44.714;37.756;2022-12-10T04:27:40;14.37;85.73
75380;HTU21D;65641;44.714;37.756;2022-12-10T04:28:43;14.37;85.77
75380;HTU21D;65641;44.714;37.756;2022-12-10T04:29:47;14.36;85.80
75380;HTU21D;65641;44.714;37.756;2022-12-10T04:30:49;14.37;85.80
75380;HTU21D;65641;44.714;37.756;2022-12-10T04:31:54;14.37;85.86
75380;HTU21D;65641;44.714;37.756;2022-12-10T04:33:00;14.37;85.81
75380;HTU21D;65641;44.714;37.756;2022-12-10T04:34:03;14.37;85.78
75380;HTU21D;65641;44.714;37.756;2022-12-10T04:35:07;14.38;85.84
75380;HTU21D;65641;44.714;37.756;2022-12-10T04:36:10;14.39;85.84
75380;HTU21D;65641;44.714;37.756;2022-12-10T04:37:13;14.38;85.83
75380;HTU21D;65641;44.714;37.756;2022-12-10T04:38:16;14.38;85.74
75380;HTU21D;65641;44.714;37.756;2022-12-10T04:39:19;14.39;85.77
75380;HTU21D;65641;44.714;37.756;2022-12-10T04:40:22;14.38;85.83
75380;HTU21D;65641;44.714;37.756;2022-12-10T04:41:25;14.38;85.87
75380;HTU21D;65641;44.714;37.756;2022-12-10T04:42:30;14.40;85.84
75380;HTU21D;65641;44.714;37.756;2022-12-10T04:43:33;14.40;85.82
75380;HTU21D;65641;44.714;37.756;2022-12-10T04:44:36;14.40;85.81
75380;HTU21D;65641;44.714;37.756;2022-12-10T04:45:39;14.40;85.82
75380;HTU21D;65641;44.714;37.756;2022-12-10T04:46:42;14.40;85.77
75380;HTU21D;65641;44.714;37.756;2022-12-10T04:47:44;14.40;85.69
75380;HTU21D;65641;44.714;37.756;2022-12-10T04:48:47;14.39;85.75
75380;HTU21D;65641;44.714;37.756;2022-12-10T04:49:50;14.41;85.74
75380;HTU21D;65641;44.714;37.756;2022-12-10T04:50:54;14.40;85.78
75380;HTU21D;65641;44.714;37.756;2022-12-10T04:51:57;14.40;85.76
75380;HTU21D;65641;44.714;37.756;2022-12-10T04:52:59;14.41;85.74
75380;HTU21D;65641;44.714;37.756;2022-12-10T04:54:03;14.41;85.74
75380;HTU21D;65641;44.714;37.756;2022-12-10T04:55:06;14.42;85.70
75380;HTU21D;65641;44.714;37.756;2022-12-10T04:56:09;14.42;85.73
75380;HTU21D;65641;44.714;37.756;2022-12-10T04:57:12;14.41;85.75
75380;HTU21D;65641;44.714;37.756;2022-12-10T04:58:15;14.41;85.71
75380;HTU21D;65641;44.714;37.756;2022-12-10T04:59:19;14.42;85.70
75380;HTU21D;65641;44.714;37.756;2022-12-10T05:00:22;14.42;85.74
75380;HTU21D;65641;44.714;37.756;2022-12-10T05:01:32;14.42;85.77
75380;HTU21D;65641;44.714;37.756;2022-12-10T05:02:35;14.44;85.72
75380;HTU21D;65641;44.714;37.756;2022-12-10T05:03:38;14.45;85.67
75380;HTU21D;65641;44.714;37.756;2022-12-10T05:04:41;14.47;85.65
75380;HTU21D;65641;44.714;37.756;2022-12-10T05:05:44;14.44;85.68
75380;HTU21D;65641;44.714;37.756;2022-12-10T05:06:48;14.45;85.69
75380;HTU21D;65641;44.714;37.756;2022-12-10T05:07:55;14.47;85.64
75380;HTU21D;65641;44.714;37.756;2022-12-10T05:08:59;14.45;85.64
75380;HTU21D;65641;44.714;37.756;2022-12-10T05:10:08;14.48;85.61
75380;HTU21D;65641;44.714;37.756;2022-12-10T05:11:17;14.45;85.62
75380;HTU21D;65641;44.714;37.756;2022-12-10T05:12:20;14.45;85.65
75380;HTU21D;65641;44.714;37.756;2022-12-10T05:13:27;14.47;85.64
75380;HTU21D;65641;44.714;37.756;2022-12-10T05:14:30;14.48;85.67
75380;HTU21D;65641;44.714;37.756;2022-12-10T05:15:33;14.48;85.59
75380;HTU21D;65641;44.714;37.756;2022-12-10T05:16:40;14.48;85.56
75380;HTU21D;65641;44.714;37.756;2022-12-10T05:17:43;14.50;85.58
75380;HTU21D;65641;44.714;37.756;2022-12-10T05:18:48;14.51;85.57
75380;HTU21D;65641;44.714;37.756;2022-12-10T05:19:51;14.51;85.56
75380;HTU21D;65641;44.714;37.756;2022-12-10T05:20:58;14.51;85.51
75380;HTU21D;65641;44.714;37.756;2022-12-10T05:22:01;14.52;85.49
75380;HTU21D;65641;44.714;37.756;2022-12-10T05:23:23;14.52;85.40
75380;HTU21D;65641;44.714;37.756;2022-12-10T05:24:31;14.53;85.45
75380;HTU21D;65641;44.714;37.756;2022-12-10T05:25:34;14.54;85.49
75380;HTU21D;65641;44.714;37.756;2022-12-10T05:26:56;14.56;85.42
75380;HTU21D;65641;44.714;37.756;2022-12-10T05:27:59;14.56;85.42
75380;HTU21D;65641;44.714;37.756;2022-12-10T05:29:02;14.57;85.37
75380;HTU21D;65641;44.714;37.756;2022-12-10T05:30:06;14.57;85.26
75380;HTU21D;65641;44.714;37.756;2022-12-10T05:31:22;14.59;85.33
75380;HTU21D;65641;44.714;37.756;2022-12-10T05:32:33;14.58;85.21
75380;HTU21D;65641;44.714;37.756;2022-12-10T05:33:36;14.60;85.19
75380;HTU21D;65641;44.714;37.756;2022-12-10T05:34:38;14.60;85.26
75380;HTU21D;65641;44.714;37.756;2022-12-10T05:35:41;14.63;85.11
75380;HTU21D;65641;44.714;37.756;2022-12-10T05:36:44;14.64;85.07
75380;HTU21D;65641;44.714;37.756;2022-12-10T05:37:47;14.64;85.06
75380;HTU21D;65641;44.714;37.756;2022-12-10T05:38:50;14.65;85.10
75380;HTU21D;65641;44.714;37.756;2022-12-10T05:39:54;14.65;85.06
75380;HTU21D;65641;44.714;37.756;2022-12-10T05:41:17;14.64;85.07
75380;HTU21D;65641;44.714;37.756;2022-12-10T05:42:20;14.64;85.01
75380;HTU21D;65641;44.714;37.756;2022-12-10T05:43:23;14.65;85.08
75380;HTU21D;65641;44.714;37.756;2022-12-10T05:44:26;14.65;85.03
75380;HTU21D;65641;44.714;37.756;2022-12-10T05:45:31;14.66;85.04
75380;HTU21D;65641;44.714;37.756;2022-12-10T05:46:39;14.66;85.08
75380;HTU21D;65641;44.714;37.756;2022-12-10T05:47:42;14.68;85.04
75380;HTU21D;65641;44.714;37.756;2022-12-10T05:48:45;14.68;85.00
75380;HTU21D;65641;44.714;37.756;2022-12-10T05:49:48;14.69;85.00
75380;HTU21D;65641;44.714;37.756;2022-12-10T05:50:54;14.70;84.94
75380;HTU21D;65641;44.714;37.756;2022-12-10T05:51:57;14.72;84.91
75380;HTU21D;65641;44.714;37.756;2022-12-10T05:53:00;14.72;84.87
75380;HTU21D;65641;44.714;37.756;2022-12-10T05:54:03;14.74;84.83
75380;HTU21D;65641;44.714;37.756;2022-12-10T05:55:07;14.74;84.78
75380;HTU21D;65641;44.714;37.756;2022-12-10T05:56:12;14.75;84.77
75380;HTU21D;65641;44.714;37.756;2022-12-10T05:57:15;14.77;84.74
75380;HTU21D;65641;44.714;37.756;2022-12-10T05:58:18;14.77;84.73
75380;HTU21D;65641;44.714;37.756;2022-12-10T05:59:21;14.79;84.67
75380;HTU21D;65641;44.714;37.756;2022-12-10T06:00:24;14.79;84.71
75380;HTU21D;65641;44.714;37.756;2022-12-10T06:01:30;14.81;84.62
75380;HTU21D;65641;44.714;37.756;2022-12-10T06:02:33;14.82;84.61
75380;HTU21D;65641;44.714;37.756;2022-12-10T06:03:36;14.83;84.56
75380;HTU21D;65641;44.714;37.756;2022-12-10T06:04:39;14.82;84.55
75380;HTU21D;65641;44.714;37.756;2022-12-10T06:05:42;14.85;84.45
75380;HTU21D;65641;44.714;37.756;2022-12-10T06:06:45;14.86;84.48
75380;HTU21D;65641;44.714;37.756;2022-12-10T06:07:50;14.87;84.36
75380;HTU21D;65641;44.714;37.756;2022-12-10T06:08:53;14.88;84.32
75380;HTU21D;65641;44.714;37.756;2022-12-10T06:09:56;14.91;84.39
75380;HTU21D;65641;44.714;37.756;2022-12-10T06:11:10;14.93;84.30
75380;HTU21D;65641;44.714;37.756;2022-12-10T06:12:13;14.94;84.24
75380;HTU21D;65641;44.714;37.756;2022-12-10T06:13:22;14.94;84.21
75380;HTU21D;65641;44.714;37.756;2022-12-10T06:14:25;14.95;84.18
75380;HTU21D;65641;44.714;37.756;2022-12-10T06:15:28;14.96;84.20
75380;HTU21D;65641;44.714;37.756;2022-12-10T06:16:31;14.98;84.16
75380;HTU21D;65641;44.714;37.756;2022-12-10T06:17:34;14.99;84.07
75380;HTU21D;65641;44.714;37.756;2022-12-10T06:18:38;15.01;84.06
75380;HTU21D;65641;44.714;37.756;2022-12-10T06:19:41;15.00;84.07
75380;HTU21D;65641;44.714;37.756;2022-12-10T06:20:44;15.02;84.03
75380;HTU21D;65641;44.714;37.756;2022-12-10T06:21:48;15.03;83.97
75380;HTU21D;65641;44.714;37.756;2022-12-10T06:22:51;15.04;84.00
75380;HTU21D;65641;44.714;37.756;2022-12-10T06:23:55;15.04;83.98
75380;HTU21D;65641;44.714;37.756;2022-12-10T06:24:58;15.06;83.95
75380;HTU21D;65641;44.714;37.756;2022-12-10T06:26:14;15.07;83.94
75380;HTU21D;65641;44.714;37.756;2022-12-10T06:27:17;15.08;83.94
75380;HTU21D;65641;44.714;37.756;2022-12-10T06:28:20;15.08;83.97
75380;HTU21D;65641;44.714;37.756;2022-12-10T06:29:23;15.08;83.97
75380;HTU21D;65641;44.714;37.756;2022-12-10T06:30:27;15.09;83.93
75380;HTU21D;65641;44.714;37.756;2022-12-10T06:31:33;15.10;83.94
75380;HTU21D;65641;44.714;37.756;2022-12-10T06:32:36;15.10;83.90
75380;HTU21D;65641;44.714;37.756;2022-12-10T06:33:39;15.11;83.91
75380;HTU21D;65641;44.714;37.756;2022-12-10T06:34:42;15.12;83.92
75380;HTU21D;65641;44.714;37.756;2022-12-10T06:35:44;15.13;83.91
75380;HTU21D;65641;44.714;37.756;2022-12-10T06:36:47;15.12;83.97
75380;HTU21D;65641;44.714;37.756;2022-12-10T06:37:50;15.13;83.87
75380;HTU21D;65641;44.714;37.756;2022-12-10T06:38:53;15.15;83.87
75380;HTU21D;65641;44.714;37.756;2022-12-10T06:39:57;15.17;83.87
75380;HTU21D;65641;44.714;37.756;2022-12-10T06:41:00;15.17;83.84
75380;HTU21D;65641;44.714;37.756;2022-12-10T06:42:02;15.19;83.78
75380;HTU21D;65641;44.714;37.756;2022-12-10T06:43:06;15.23;83.74
75380;HTU21D;65641;44.714;37.756;2022-12-10T06:44:09;15.23;83.69
75380;HTU21D;65641;44.714;37.756;2022-12-10T06:45:12;15.24;83.64
75380;HTU21D;65641;44.714;37.756;2022-12-10T06:46:18;15.25;83.63
75380;HTU21D;65641;44.714;37.756;2022-12-10T06:47:21;15.25;83.62
75380;HTU21D;65641;44.714;37.756;2022-12-10T06:48:24;15.27;83.65
75380;HTU21D;65641;44.714;37.756;2022-12-10T06:49:29;15.29;83.58
75380;HTU21D;65641;44.714;37.756;2022-12-10T06:50:31;15.29;83.52
75380;HTU21D;65641;44.714;37.756;2022-12-10T06:51:34;15.32;83.53
75380;HTU21D;65641;44.714;37.756;2022-12-10T06:52:37;15.33;83.52
75380;HTU21D;65641;44.714;37.756;2022-12-10T06:53:41;15.34;83.45
75380;HTU21D;65641;44.714;37.756;2022-12-10T06:54:47;15.38;83.39
75380;HTU21D;65641;44.714;37.756;2022-12-10T06:55:50;15.39;83.39
75380;HTU21D;65641;44.714;37.756;2022-12-10T06:56:52;15.42;83.29